Alburg, Vermont
Current Conditions -  °F | °C
As of 6:35 PM on Saturday 25 Oct 2014 (Local Time) from KFSO Reporting Station
Light Rain Light Rain  
Wind Chill: 50°   Ceiling: 5500
Heat Index: 50°   Visibility: 7mi
Dew Point: 48°   Wind: 8mph
Humidity: 92%   Direction: 170°S
Pressure: 29.49"   Gusts: NA
Location:  44.9685°N, 73.281°W
Report Text: KFSO 252235Z AUTO 17007KT 7SM -RA SCT038 BKN055 OVC070 10/09 A2949 RMK AO2 T01000088
Loading
Personal Weather Stations






























Interactive Weather Map
Tropical Storm Tracking
New forecast layout! Learn more

10-Day Weather Forecast

Advertisements
Track Severe Weather on mobile